sensor_id;sensor_type;location;lat;lon;timestamp;pressure;altitude;pressure_sealevel;temperature;humidity
5753;BME280;2901;42.140;24.760;2023-08-17T00:01:44;99379.00;;;25.38;63.59
5753;BME280;2901;42.140;24.760;2023-08-17T00:04:09;99368.81;;;25.32;63.23
5753;BME280;2901;42.140;24.760;2023-08-17T00:06:35;99369.75;;;25.31;64.96
5753;BME280;2901;42.140;24.760;2023-08-17T00:09:00;99379.63;;;25.29;65.30
5753;BME280;2901;42.140;24.760;2023-08-17T00:11:26;99379.31;;;25.21;66.24
5753;BME280;2901;42.140;24.760;2023-08-17T00:13:51;99376.84;;;24.93;68.17
5753;BME280;2901;42.140;24.760;2023-08-17T00:16:17;99375.41;;;24.87;67.94
5753;BME280;2901;42.140;24.760;2023-08-17T00:18:42;99375.81;;;24.81;67.94
5753;BME280;2901;42.140;24.760;2023-08-17T00:21:08;99375.84;;;24.67;69.14
5753;BME280;2901;42.140;24.760;2023-08-17T00:23:33;99373.22;;;24.67;69.13
5753;BME280;2901;42.140;24.760;2023-08-17T00:25:59;99376.03;;;24.51;70.59
5753;BME280;2901;42.140;24.760;2023-08-17T00:28:25;99368.25;;;24.36;71.56
5753;BME280;2901;42.140;24.760;2023-08-17T00:30:50;99374.97;;;24.27;72.10
5753;BME280;2901;42.140;24.760;2023-08-17T00:33:16;99369.03;;;24.09;73.20
5753;BME280;2901;42.140;24.760;2023-08-17T00:35:41;99371.97;;;24.05;73.98
5753;BME280;2901;42.140;24.760;2023-08-17T00:38:07;99367.91;;;23.99;74.79
5753;BME280;2901;42.140;24.760;2023-08-17T00:40:33;99372.94;;;23.90;75.09
5753;BME280;2901;42.140;24.760;2023-08-17T00:42:58;99375.78;;;23.87;75.73
5753;BME280;2901;42.140;24.760;2023-08-17T00:45:24;99375.78;;;23.87;76.17
5753;BME280;2901;42.140;24.760;2023-08-17T00:47:49;99360.56;;;23.76;76.49
5753;BME280;2901;42.140;24.760;2023-08-17T00:50:15;99363.50;;;23.71;77.17
5753;BME280;2901;42.140;24.760;2023-08-17T00:52:41;99372.59;;;23.67;78.06
5753;BME280;2901;42.140;24.760;2023-08-17T00:55:08;99378.72;;;23.54;79.48
5753;BME280;2901;42.140;24.760;2023-08-17T00:57:35;99371.31;;;23.45;79.99
5753;BME280;2901;42.140;24.760;2023-08-17T01:00:01;99375.88;;;23.57;79.79
5753;BME280;2901;42.140;24.760;2023-08-17T01:02:27;99384.94;;;23.67;79.38
5753;BME280;2901;42.140;24.760;2023-08-17T01:04:53;99387.78;;;23.64;79.18
5753;BME280;2901;42.140;24.760;2023-08-17T01:07:18;99393.75;;;23.67;78.60
5753;BME280;2901;42.140;24.760;2023-08-17T01:09:43;99381.25;;;23.69;78.71
5753;BME280;2901;42.140;24.760;2023-08-17T01:14:42;99365.41;;;23.69;78.17
5753;BME280;2901;42.140;24.760;2023-08-17T01:17:18;99384.28;;;23.77;78.33
5753;BME280;2901;42.140;24.760;2023-08-17T01:19:49;99377.28;;;23.76;77.95
5753;BME280;2901;42.140;24.760;2023-08-17T01:22:17;99377.28;;;23.76;78.67
5753;BME280;2901;42.140;24.760;2023-08-17T01:24:43;99374.06;;;23.71;78.07
5753;BME280;2901;42.140;24.760;2023-08-17T01:27:08;99375.78;;;23.72;77.79
5753;BME280;2901;42.140;24.760;2023-08-17T01:29:34;99370.50;;;23.72;77.83
5753;BME280;2901;42.140;24.760;2023-08-17T01:32:27;99375.78;;;23.72;77.46
5753;BME280;2901;42.140;24.760;2023-08-17T01:35:11;99385.69;;;23.69;78.84
5753;BME280;2901;42.140;24.760;2023-08-17T01:37:40;99386.06;;;23.63;79.37
5753;BME280;2901;42.140;24.760;2023-08-17T01:40:07;99378.81;;;23.66;78.65
5753;BME280;2901;42.140;24.760;2023-08-17T01:42:33;99373.88;;;23.74;78.35
5753;BME280;2901;42.140;24.760;2023-08-17T01:44:58;99379.16;;;23.74;78.51
5753;BME280;2901;42.140;24.760;2023-08-17T01:47:24;99379.09;;;23.76;78.25
5753;BME280;2901;42.140;24.760;2023-08-17T01:49:49;99374.06;;;23.71;78.32
5753;BME280;2901;42.140;24.760;2023-08-17T01:52:15;99363.59;;;23.70;79.01
5753;BME280;2901;42.140;24.760;2023-08-17T01:54:40;99369.94;;;23.67;79.51
5753;BME280;2901;42.140;24.760;2023-08-17T01:57:06;99374.66;;;23.62;79.67
5753;BME280;2901;42.140;24.760;2023-08-17T01:59:31;99373.13;;;23.58;79.95
5753;BME280;2901;42.140;24.760;2023-08-17T02:01:56;99366.50;;;23.51;80.25
5753;BME280;2901;42.140;24.760;2023-08-17T02:04:22;99363.31;;;23.46;80.27
5753;BME280;2901;42.140;24.760;2023-08-17T02:06:47;99366.56;;;23.36;81.41
5753;BME280;2901;42.140;24.760;2023-08-17T02:09:13;99370.91;;;23.22;81.91
5753;BME280;2901;42.140;24.760;2023-08-17T02:11:38;99366.25;;;23.12;82.44
5753;BME280;2901;42.140;24.760;2023-08-17T02:14:03;99368.25;;;23.08;82.50
5753;BME280;2901;42.140;24.760;2023-08-17T02:16:29;99372.28;;;23.00;83.03
5753;BME280;2901;42.140;24.760;2023-08-17T02:18:54;99372.16;;;22.87;84.05
5753;BME280;2901;42.140;24.760;2023-08-17T02:21:19;99364.34;;;22.70;85.32
5753;BME280;2901;42.140;24.760;2023-08-17T02:23:45;99369.38;;;22.43;87.96
5753;BME280;2901;42.140;24.760;2023-08-17T02:26:10;99368.56;;;22.27;89.09
5753;BME280;2901;42.140;24.760;2023-08-17T02:28:36;99367.31;;;22.18;90.33
5753;BME280;2901;42.140;24.760;2023-08-17T02:31:01;99366.00;;;22.10;91.06
5753;BME280;2901;42.140;24.760;2023-08-17T02:33:27;99364.22;;;22.10;90.91
5753;BME280;2901;42.140;24.760;2023-08-17T02:35:52;99366.28;;;22.05;91.34
5753;BME280;2901;42.140;24.760;2023-08-17T02:38:18;99359.41;;;22.03;91.58
5753;BME280;2901;42.140;24.760;2023-08-17T02:40:43;99358.78;;;21.98;91.94
5753;BME280;2901;42.140;24.760;2023-08-17T02:43:09;99363.03;;;22.00;91.98
5753;BME280;2901;42.140;24.760;2023-08-17T02:45:35;99357.59;;;22.03;91.87
5753;BME280;2901;42.140;24.760;2023-08-17T02:48:00;99366.00;;;22.10;91.33
5753;BME280;2901;42.140;24.760;2023-08-17T02:50:25;99363.38;;;22.10;91.08
5753;BME280;2901;42.140;24.760;2023-08-17T02:52:51;99365.06;;;22.11;89.55
5753;BME280;2901;42.140;24.760;2023-08-17T02:55:16;99366.00;;;22.10;88.86
5753;BME280;2901;42.140;24.760;2023-08-17T02:57:42;99375.81;;;22.08;88.92
5753;BME280;2901;42.140;24.760;2023-08-17T03:00:07;99367.72;;;22.11;88.33
5753;BME280;2901;42.140;24.760;2023-08-17T03:02:33;99371.44;;;22.07;88.01
5753;BME280;2901;42.140;24.760;2023-08-17T03:04:58;99369.59;;;22.09;87.86
5753;BME280;2901;42.140;24.760;2023-08-17T03:07:23;99364.16;;;22.12;87.84
5753;BME280;2901;42.140;24.760;2023-08-17T03:09:49;99368.31;;;22.16;87.62
5753;BME280;2901;42.140;24.760;2023-08-17T03:12:14;99363.56;;;22.22;87.19
5753;BME280;2901;42.140;24.760;2023-08-17T03:14:39;99362.25;;;22.30;86.58
5753;BME280;2901;42.140;24.760;2023-08-17T03:17:05;99367.22;;;22.36;85.16
5753;BME280;2901;42.140;24.760;2023-08-17T03:19:30;99368.50;;;22.29;84.30
5753;BME280;2901;42.140;24.760;2023-08-17T03:21:56;99373.25;;;22.22;83.52
5753;BME280;2901;42.140;24.760;2023-08-17T03:24:21;99372.97;;;22.27;83.41
5753;BME280;2901;42.140;24.760;2023-08-17T03:26:46;99368.38;;;22.30;83.37
5753;BME280;2901;42.140;24.760;2023-08-17T03:29:12;99379.53;;;22.35;82.75
5753;BME280;2901;42.140;24.760;2023-08-17T03:31:37;99370.59;;;22.38;82.96
5753;BME280;2901;42.140;24.760;2023-08-17T03:34:03;99378.28;;;22.42;82.08
5753;BME280;2901;42.140;24.760;2023-08-17T03:36:28;99379.59;;;22.49;81.88
5753;BME280;2901;42.140;24.760;2023-08-17T03:38:53;99376.03;;;22.50;81.82
5753;BME280;2901;42.140;24.760;2023-08-17T03:41:20;99380.03;;;22.57;82.04
5753;BME280;2901;42.140;24.760;2023-08-17T03:43:46;99373.53;;;22.63;81.97
5753;BME280;2901;42.140;24.760;2023-08-17T03:46:11;99384.63;;;22.69;82.06
5753;BME280;2901;42.140;24.760;2023-08-17T03:48:36;99391.19;;;22.78;81.39
5753;BME280;2901;42.140;24.760;2023-08-17T03:51:02;99386.06;;;22.75;77.26
5753;BME280;2901;42.140;24.760;2023-08-17T03:53:28;99388.13;;;22.70;76.83
5753;BME280;2901;42.140;24.760;2023-08-17T03:55:53;99379.44;;;22.68;75.61
5753;BME280;2901;42.140;24.760;2023-08-17T03:58:18;99386.50;;;22.67;76.11
5753;BME280;2901;42.140;24.760;2023-08-17T04:00:53;99387.38;;;22.68;75.65
5753;BME280;2901;42.140;24.760;2023-08-17T04:03:19;99382.16;;;22.66;75.83
5753;BME280;2901;42.140;24.760;2023-08-17T04:05:45;99387.94;;;22.73;75.69
5753;BME280;2901;42.140;24.760;2023-08-17T04:08:10;99391.34;;;22.75;75.68
5753;BME280;2901;42.140;24.760;2023-08-17T04:10:35;99392.03;;;22.79;75.31
5753;BME280;2901;42.140;24.760;2023-08-17T04:13:01;99393.03;;;22.76;75.21
5753;BME280;2901;42.140;24.760;2023-08-17T04:15:26;99387.94;;;22.73;74.86
5753;BME280;2901;42.140;24.760;2023-08-17T04:17:52;99393.41;;;22.70;75.60
5753;BME280;2901;42.140;24.760;2023-08-17T04:20:17;99385.72;;;22.65;75.75
5753;BME280;2901;42.140;24.760;2023-08-17T04:22:46;99386.41;;;22.69;76.45
5753;BME280;2901;42.140;24.760;2023-08-17T04:25:13;99389.38;;;22.79;76.15
5753;BME280;2901;42.140;24.760;2023-08-17T04:27:38;99388.53;;;22.78;76.37
5753;BME280;2901;42.140;24.760;2023-08-17T04:30:04;99388.72;;;22.75;76.63
5753;BME280;2901;42.140;24.760;2023-08-17T04:32:30;99394.81;;;22.75;76.98
5753;BME280;2901;42.140;24.760;2023-08-17T04:34:55;99391.84;;;22.82;77.01
5753;BME280;2901;42.140;24.760;2023-08-17T04:37:20;99396.28;;;22.81;77.86
5753;BME280;2901;42.140;24.760;2023-08-17T04:39:46;99394.66;;;22.79;79.12
5753;BME280;2901;42.140;24.760;2023-08-17T04:42:13;99396.63;;;22.75;79.86
5753;BME280;2901;42.140;24.760;2023-08-17T04:44:39;99390.75;;;22.70;80.91
5753;BME280;2901;42.140;24.760;2023-08-17T04:47:04;99394.00;;;22.75;81.46
5753;BME280;2901;42.140;24.760;2023-08-17T04:49:30;99391.69;;;22.69;81.82
5753;BME280;2901;42.140;24.760;2023-08-17T04:51:56;99398.00;;;22.66;82.43
5753;BME280;2901;42.140;24.760;2023-08-17T04:54:21;99396.28;;;22.65;82.64
5753;BME280;2901;42.140;24.760;2023-08-17T04:56:47;99396.13;;;22.68;82.67
5753;BME280;2901;42.140;24.760;2023-08-17T04:59:12;99390.84;;;22.68;82.72
5753;BME280;2901;42.140;24.760;2023-08-17T05:01:38;99393.22;;;22.73;82.49
5753;BME280;2901;42.140;24.760;2023-08-17T05:04:04;99396.00;;;22.86;81.71
5753;BME280;2901;42.140;24.760;2023-08-17T05:06:30;99397.16;;;22.96;80.33
5753;BME280;2901;42.140;24.760;2023-08-17T05:08:56;99395.47;;;22.95;80.05
5753;BME280;2901;42.140;24.760;2023-08-17T05:11:21;99403.59;;;22.92;79.85
5753;BME280;2901;42.140;24.760;2023-08-17T05:13:46;99401.44;;;22.98;80.21
5753;BME280;2901;42.140;24.760;2023-08-17T05:16:12;99406.91;;;23.09;80.01
5753;BME280;2901;42.140;24.760;2023-08-17T05:18:37;99400.25;;;23.18;80.26
5753;BME280;2901;42.140;24.760;2023-08-17T05:21:03;99396.03;;;23.30;79.70
5753;BME280;2901;42.140;24.760;2023-08-17T05:23:28;99395.56;;;23.37;79.32
5753;BME280;2901;42.140;24.760;2023-08-17T05:25:54;99396.56;;;23.50;78.84
5753;BME280;2901;42.140;24.760;2023-08-17T05:28:19;99395.25;;;23.57;79.04
5753;BME280;2901;42.140;24.760;2023-08-17T05:30:44;99392.97;;;23.65;78.55
5753;BME280;2901;42.140;24.760;2023-08-17T05:33:10;99393.53;;;23.70;79.20
5753;BME280;2901;42.140;24.760;2023-08-17T05:35:36;99386.56;;;23.84;79.08
5753;BME280;2901;42.140;24.760;2023-08-17T05:38:01;99389.06;;;23.99;78.33
5753;BME280;2901;42.140;24.760;2023-08-17T05:40:29;99385.84;;;24.08;77.45
5753;BME280;2901;42.140;24.760;2023-08-17T05:42:55;99388.50;;;24.08;76.98
5753;BME280;2901;42.140;24.760;2023-08-17T05:45:20;99393.88;;;24.21;76.54
5753;BME280;2901;42.140;24.760;2023-08-17T05:47:46;99384.81;;;24.25;76.68
5753;BME280;2901;42.140;24.760;2023-08-17T05:50:11;99386.56;;;24.39;76.68
5753;BME280;2901;42.140;24.760;2023-08-17T05:52:36;99385.31;;;24.44;76.93
5753;BME280;2901;42.140;24.760;2023-08-17T05:55:02;99387.38;;;24.53;75.90
5753;BME280;2901;42.140;24.760;2023-08-17T05:57:27;99386.00;;;24.60;74.71
5753;BME280;2901;42.140;24.760;2023-08-17T05:59:53;99390.94;;;24.66;74.56
5753;BME280;2901;42.140;24.760;2023-08-17T06:02:18;99383.16;;;24.63;73.75
5753;BME280;2901;42.140;24.760;2023-08-17T06:04:44;99387.44;;;24.66;73.94
5753;BME280;2901;42.140;24.760;2023-08-17T06:07:09;99384.38;;;24.72;73.93
5753;BME280;2901;42.140;24.760;2023-08-17T06:09:34;99385.50;;;24.82;73.89
5753;BME280;2901;42.140;24.760;2023-08-17T06:12:00;99385.94;;;25.01;72.42
5753;BME280;2901;42.140;24.760;2023-08-17T06:14:25;99384.47;;;25.10;72.48
5753;BME280;2901;42.140;24.760;2023-08-17T06:16:50;99378.56;;;25.19;72.71
5753;BME280;2901;42.140;24.760;2023-08-17T06:19:16;99380.06;;;25.36;72.37
5753;BME280;2901;42.140;24.760;2023-08-17T06:21:41;99376.44;;;25.49;71.21
5753;BME280;2901;42.140;24.760;2023-08-17T06:24:06;99385.19;;;25.51;70.99
5753;BME280;2901;42.140;24.760;2023-08-17T06:26:32;99385.47;;;25.47;71.13
5753;BME280;2901;42.140;24.760;2023-08-17T06:28:57;99379.03;;;25.51;71.10
5753;BME280;2901;42.140;24.760;2023-08-17T06:31:22;99374.75;;;25.48;71.67
5753;BME280;2901;42.140;24.760;2023-08-17T06:33:53;99380.19;;;25.59;71.16
5753;BME280;2901;42.140;24.760;2023-08-17T06:36:18;99380.50;;;25.67;71.12
5753;BME280;2901;42.140;24.760;2023-08-17T06:38:44;99384.31;;;25.76;70.93
5753;BME280;2901;42.140;24.760;2023-08-17T06:41:09;99384.28;;;25.89;70.98
5753;BME280;2901;42.140;24.760;2023-08-17T06:43:35;99386.59;;;26.06;69.56
5753;BME280;2901;42.140;24.760;2023-08-17T06:46:00;99387.88;;;26.00;68.68
5753;BME280;2901;42.140;24.760;2023-08-17T06:48:27;99385.00;;;26.03;68.82
5753;BME280;2901;42.140;24.760;2023-08-17T06:50:52;99369.00;;;26.05;67.91
5753;BME280;2901;42.140;24.760;2023-08-17T06:53:18;99392.91;;;26.28;66.62
5753;BME280;2901;42.140;24.760;2023-08-17T06:55:43;99383.47;;;26.37;66.81
5753;BME280;2901;42.140;24.760;2023-08-17T06:58:08;99367.94;;;26.44;65.20
5753;BME280;2901;42.140;24.760;2023-08-17T07:00:34;99384.75;;;26.55;64.95
5753;BME280;2901;42.140;24.760;2023-08-17T07:03:01;99379.97;;;26.60;65.95
5753;BME280;2901;42.140;24.760;2023-08-17T07:05:26;99377.47;;;26.70;63.52
5753;BME280;2901;42.140;24.760;2023-08-17T07:07:52;99377.44;;;26.83;63.55
5753;BME280;2901;42.140;24.760;2023-08-17T07:10:18;99384.47;;;26.95;62.39
5753;BME280;2901;42.140;24.760;2023-08-17T07:12:44;99379.06;;;27.07;61.87
5753;BME280;2901;42.140;24.760;2023-08-17T07:15:10;99377.91;;;27.22;61.58
5753;BME280;2901;42.140;24.760;2023-08-17T07:17:35;99366.47;;;27.33;62.20
5753;BME280;2901;42.140;24.760;2023-08-17T07:20:03;99375.34;;;27.56;59.75
5753;BME280;2901;42.140;24.760;2023-08-17T07:22:28;99375.47;;;27.65;59.76
5753;BME280;2901;42.140;24.760;2023-08-17T07:24:54;99367.72;;;27.73;58.53
5753;BME280;2901;42.140;24.760;2023-08-17T07:27:19;99367.22;;;27.79;57.95
5753;BME280;2901;42.140;24.760;2023-08-17T07:29:45;99381.50;;;27.90;57.41
5753;BME280;2901;42.140;24.760;2023-08-17T07:32:10;99372.66;;;28.00;56.27
5753;BME280;2901;42.140;24.760;2023-08-17T07:34:36;99365.06;;;28.07;56.65
5753;BME280;2901;42.140;24.760;2023-08-17T07:37:03;99373.91;;;28.07;55.91
5753;BME280;2901;42.140;24.760;2023-08-17T07:39:29;99382.47;;;28.22;56.43
5753;BME280;2901;42.140;24.760;2023-08-17T07:41:54;99382.81;;;28.28;56.56
5753;BME280;2901;42.140;24.760;2023-08-17T07:44:19;99376.25;;;28.44;55.02
5753;BME280;2901;42.140;24.760;2023-08-17T07:46:45;99379.06;;;28.63;54.22
5753;BME280;2901;42.140;24.760;2023-08-17T07:49:10;99376.50;;;28.83;53.52
5753;BME280;2901;42.140;24.760;2023-08-17T07:51:35;99374.81;;;29.03;51.44
5753;BME280;2901;42.140;24.760;2023-08-17T07:54:01;99368.06;;;29.20;50.87
5753;BME280;2901;42.140;24.760;2023-08-17T07:56:26;99369.31;;;29.37;51.21
5753;BME280;2901;42.140;24.760;2023-08-17T07:58:55;99374.16;;;29.52;49.44
5753;BME280;2901;42.140;24.760;2023-08-17T08:01:20;99368.50;;;29.66;49.77
5753;BME280;2901;42.140;24.760;2023-08-17T08:03:46;99369.81;;;29.81;48.16
5753;BME280;2901;42.140;24.760;2023-08-17T08:06:11;99364.63;;;29.80;47.12
5753;BME280;2901;42.140;24.760;2023-08-17T08:08:38;99364.63;;;29.80;47.72
5753;BME280;2901;42.140;24.760;2023-08-17T08:11:03;99365.66;;;29.89;47.76
5753;BME280;2901;42.140;24.760;2023-08-17T08:13:30;99365.25;;;29.93;46.16
5753;BME280;2901;42.140;24.760;2023-08-17T08:15:55;99366.97;;;30.04;45.60
5753;BME280;2901;42.140;24.760;2023-08-17T08:18:21;99363.22;;;30.16;44.91
5753;BME280;2901;42.140;24.760;2023-08-17T08:20:47;99365.91;;;30.25;44.40
5753;BME280;2901;42.140;24.760;2023-08-17T08:23:13;99361.31;;;30.47;43.69
5753;BME280;2901;42.140;24.760;2023-08-17T08:25:38;99358.66;;;30.56;43.06
5753;BME280;2901;42.140;24.760;2023-08-17T08:28:04;99356.97;;;30.55;43.07
5753;BME280;2901;42.140;24.760;2023-08-17T08:30:29;99360.78;;;30.62;44.05
5753;BME280;2901;42.140;24.760;2023-08-17T08:32:55;99353.91;;;30.79;43.19
5753;BME280;2901;42.140;24.760;2023-08-17T08:35:23;99352.47;;;30.94;43.04
5753;BME280;2901;42.140;24.760;2023-08-17T08:37:50;99342.91;;;31.11;42.45
5753;BME280;2901;42.140;24.760;2023-08-17T08:40:16;99349.53;;;31.07;42.39
5753;BME280;2901;42.140;24.760;2023-08-17T08:42:42;99339.66;;;31.17;41.84
5753;BME280;2901;42.140;24.760;2023-08-17T08:45:08;99342.03;;;31.20;42.10
5753;BME280;2901;42.140;24.760;2023-08-17T08:47:36;99342.84;;;31.30;42.27
5753;BME280;2901;42.140;24.760;2023-08-17T08:50:03;99332.00;;;31.41;40.61
5753;BME280;2901;42.140;24.760;2023-08-17T08:52:45;99328.72;;;31.57;41.31
5753;BME280;2901;42.140;24.760;2023-08-17T08:55:18;99330.25;;;31.59;41.10
5753;BME280;2901;42.140;24.760;2023-08-17T08:57:46;99318.25;;;31.63;40.89
5753;BME280;2901;42.140;24.760;2023-08-17T09:00:12;99321.09;;;31.89;39.81
5753;BME280;2901;42.140;24.760;2023-08-17T09:02:38;99322.84;;;32.08;39.79
5753;BME280;2901;42.140;24.760;2023-08-17T09:05:06;99324.22;;;31.84;39.12
5753;BME280;2901;42.140;24.760;2023-08-17T09:07:32;99312.06;;;31.90;39.62
5753;BME280;2901;42.140;24.760;2023-08-17T09:09:58;99310.47;;;32.07;40.06
5753;BME280;2901;42.140;24.760;2023-08-17T09:12:24;99309.09;;;32.20;39.12
5753;BME280;2901;42.140;24.760;2023-08-17T09:14:50;99312.38;;;32.32;39.52
5753;BME280;2901;42.140;24.760;2023-08-17T09:17:26;99306.94;;;32.42;38.16
5753;BME280;2901;42.140;24.760;2023-08-17T09:19:51;99308.25;;;32.55;38.64
5753;BME280;2901;42.140;24.760;2023-08-17T09:25:03;99311.34;;;32.78;38.40
5753;BME280;2901;42.140;24.760;2023-08-17T09:27:29;99306.41;;;32.91;37.01
5753;BME280;2901;42.140;24.760;2023-08-17T09:30:03;99315.00;;;32.95;37.45
5753;BME280;2901;42.140;24.760;2023-08-17T09:32:31;99308.34;;;33.07;37.20
5753;BME280;2901;42.140;24.760;2023-08-17T09:34:57;99312.66;;;33.17;37.08
5753;BME280;2901;42.140;24.760;2023-08-17T09:37:22;99311.88;;;33.25;37.04
5753;BME280;2901;42.140;24.760;2023-08-17T09:39:48;99305.53;;;33.26;36.72
5753;BME280;2901;42.140;24.760;2023-08-17T09:42:14;99308.75;;;33.37;36.70
5753;BME280;2901;42.140;24.760;2023-08-17T09:44:43;99297.81;;;33.31;36.15
5753;BME280;2901;42.140;24.760;2023-08-17T09:47:10;99306.47;;;33.43;36.27
5753;BME280;2901;42.140;24.760;2023-08-17T09:49:35;99294.03;;;33.50;36.13
5753;BME280;2901;42.140;24.760;2023-08-17T09:52:00;99303.28;;;33.47;36.47
5753;BME280;2901;42.140;24.760;2023-08-17T09:54:30;99297.34;;;33.61;35.89
5753;BME280;2901;42.140;24.760;2023-08-17T09:56:56;99295.00;;;33.66;35.42
5753;BME280;2901;42.140;24.760;2023-08-17T09:59:22;99287.84;;;33.83;34.78
5753;BME280;2901;42.140;24.760;2023-08-17T10:01:50;99284.69;;;33.96;34.31
5753;BME280;2901;42.140;24.760;2023-08-17T10:04:20;99286.22;;;33.98;34.76
5753;BME280;2901;42.140;24.760;2023-08-17T10:06:50;99284.91;;;34.10;34.69
5753;BME280;2901;42.140;24.760;2023-08-17T10:09:23;99286.16;;;34.24;34.54
5753;BME280;2901;42.140;24.760;2023-08-17T10:11:52;99282.78;;;34.30;34.48
5753;BME280;2901;42.140;24.760;2023-08-17T10:14:23;99280.28;;;34.36;34.32
5753;BME280;2901;42.140;24.760;2023-08-17T10:16:57;99276.56;;;34.29;33.42
5753;BME280;2901;42.140;24.760;2023-08-17T10:19:43;99278.06;;;33.74;33.88
5753;BME280;2901;42.140;24.760;2023-08-17T10:22:23;99271.19;;;33.79;34.53
5753;BME280;2901;42.140;24.760;2023-08-17T10:24:51;99269.25;;;33.98;33.50
5753;BME280;2901;42.140;24.760;2023-08-17T10:27:17;99268.13;;;34.08;33.08
5753;BME280;2901;42.140;24.760;2023-08-17T10:29:44;99264.25;;;34.11;32.03
5753;BME280;2901;42.140;24.760;2023-08-17T10:32:11;99265.22;;;33.94;32.41
5753;BME280;2901;42.140;24.760;2023-08-17T10:34:37;99262.44;;;33.69;32.31
5753;BME280;2901;42.140;24.760;2023-08-17T10:37:04;99255.72;;;33.65;32.89
5753;BME280;2901;42.140;24.760;2023-08-17T10:39:30;99252.28;;;33.55;33.64
5753;BME280;2901;42.140;24.760;2023-08-17T10:41:57;99244.16;;;33.73;33.08
5753;BME280;2901;42.140;24.760;2023-08-17T10:44:43;99250.75;;;33.86;32.62
5753;BME280;2901;42.140;24.760;2023-08-17T10:47:38;99253.19;;;34.14;32.71
5753;BME280;2901;42.140;24.760;2023-08-17T10:50:22;99251.53;;;34.37;32.00
5753;BME280;2901;42.140;24.760;2023-08-17T10:52:49;99239.25;;;34.42;31.96
5753;BME280;2901;42.140;24.760;2023-08-17T10:55:14;99237.41;;;34.59;31.34
5753;BME280;2901;42.140;24.760;2023-08-17T10:57:41;99238.78;;;34.71;30.95
5753;BME280;2901;42.140;24.760;2023-08-17T11:02:50;99230.53;;;34.81;31.31
5753;BME280;2901;42.140;24.760;2023-08-17T11:08:03;99223.75;;;35.09;31.05
5753;BME280;2901;42.140;24.760;2023-08-17T11:10:29;99223.72;;;35.17;30.22
5753;BME280;2901;42.140;24.760;2023-08-17T11:12:55;99217.19;;;35.12;30.03
5753;BME280;2901;42.140;24.760;2023-08-17T11:15:38;99219.72;;;35.05;30.59
5753;BME280;2901;42.140;24.760;2023-08-17T11:18:10;99219.19;;;35.10;30.73
5753;BME280;2901;42.140;24.760;2023-08-17T11:20:38;99205.38;;;35.21;29.59
5753;BME280;2901;42.140;24.760;2023-08-17T11:23:04;99204.09;;;35.01;29.48
5753;BME280;2901;42.140;24.760;2023-08-17T11:25:31;99206.63;;;35.10;29.99
5753;BME280;2901;42.140;24.760;2023-08-17T11:27:57;99206.28;;;35.13;30.07
5753;BME280;2901;42.140;24.760;2023-08-17T11:30:24;99203.69;;;35.28;29.27
5753;BME280;2901;42.140;24.760;2023-08-17T11:32:50;99203.97;;;35.41;29.59
5753;BME280;2901;42.140;24.760;2023-08-17T11:35:16;99198.19;;;35.52;29.13
5753;BME280;2901;42.140;24.760;2023-08-17T11:37:42;99191.88;;;35.76;28.92
5753;BME280;2901;42.140;24.760;2023-08-17T11:40:10;99188.69;;;35.95;28.90
5753;BME280;2901;42.140;24.760;2023-08-17T11:42:36;99195.06;;;36.02;28.02
5753;BME280;2901;42.140;24.760;2023-08-17T11:45:02;99196.66;;;36.19;27.87
5753;BME280;2901;42.140;24.760;2023-08-17T11:47:28;99176.94;;;36.19;27.66
5753;BME280;2901;42.140;24.760;2023-08-17T11:49:59;99176.84;;;36.27;27.96
5753;BME280;2901;42.140;24.760;2023-08-17T11:52:26;99182.06;;;36.28;27.55
5753;BME280;2901;42.140;24.760;2023-08-17T11:54:57;99182.06;;;36.28;27.46
5753;BME280;2901;42.140;24.760;2023-08-17T11:57:22;99173.63;;;36.46;27.24
5753;BME280;2901;42.140;24.760;2023-08-17T11:59:48;99182.22;;;36.50;27.17
5753;BME280;2901;42.140;24.760;2023-08-17T12:02:13;99184.06;;;36.12;26.36
5753;BME280;2901;42.140;24.760;2023-08-17T12:04:39;99172.88;;;35.92;26.65
5753;BME280;2901;42.140;24.760;2023-08-17T12:07:05;99175.81;;;35.82;26.43
5753;BME280;2901;42.140;24.760;2023-08-17T12:09:34;99153.22;;;35.83;26.49
5753;BME280;2901;42.140;24.760;2023-08-17T12:12:00;99156.00;;;35.98;26.06
5753;BME280;2901;42.140;24.760;2023-08-17T12:14:27;99149.59;;;35.76;26.22
5753;BME280;2901;42.140;24.760;2023-08-17T12:16:53;99150.47;;;35.91;25.89
5753;BME280;2901;42.140;24.760;2023-08-17T12:19:20;99153.78;;;36.02;25.78
5753;BME280;2901;42.140;24.760;2023-08-17T12:21:48;99132.75;;;36.20;25.12
5753;BME280;2901;42.140;24.760;2023-08-17T12:24:13;99143.84;;;36.25;25.43
5753;BME280;2901;42.140;24.760;2023-08-17T12:26:46;99136.28;;;36.20;24.10
5753;BME280;2901;42.140;24.760;2023-08-17T12:29:12;99123.47;;;36.37;24.36
5753;BME280;2901;42.140;24.760;2023-08-17T12:31:38;99115.94;;;36.55;24.19
5753;BME280;2901;42.140;24.760;2023-08-17T12:34:03;99118.19;;;36.43;24.68
5753;BME280;2901;42.140;24.760;2023-08-17T12:36:31;99126.06;;;36.16;25.94
5753;BME280;2901;42.140;24.760;2023-08-17T12:38:56;99124.28;;;36.23;25.83
5753;BME280;2901;42.140;24.760;2023-08-17T12:41:22;99122.00;;;36.34;25.64
5753;BME280;2901;42.140;24.760;2023-08-17T12:43:47;99126.75;;;36.32;25.45
5753;BME280;2901;42.140;24.760;2023-08-17T12:46:13;99121.94;;;36.20;25.38
5753;BME280;2901;42.140;24.760;2023-08-17T12:48:38;99120.41;;;36.40;25.02
5753;BME280;2901;42.140;24.760;2023-08-17T12:51:04;99121.97;;;36.57;25.03
5753;BME280;2901;42.140;24.760;2023-08-17T12:53:29;99118.16;;;36.66;25.40
5753;BME280;2901;42.140;24.760;2023-08-17T12:55:55;99113.16;;;36.78;25.05
5753;BME280;2901;42.140;24.760;2023-08-17T12:58:21;99124.03;;;36.55;24.73
5753;BME280;2901;42.140;24.760;2023-08-17T13:00:46;99124.69;;;36.34;25.55
5753;BME280;2901;42.140;24.760;2023-08-17T13:03:11;99122.16;;;36.33;25.17
5753;BME280;2901;42.140;24.760;2023-08-17T13:05:37;99118.34;;;36.27;24.98
5753;BME280;2901;42.140;24.760;2023-08-17T13:08:02;99116.06;;;36.39;25.18
5753;BME280;2901;42.140;24.760;2023-08-17T13:10:28;99115.84;;;36.26;24.91
5753;BME280;2901;42.140;24.760;2023-08-17T13:12:54;99122.06;;;36.26;25.97
5753;BME280;2901;42.140;24.760;2023-08-17T13:15:24;99113.66;;;36.07;25.54
5753;BME280;2901;42.140;24.760;2023-08-17T13:17:50;99118.13;;;36.14;26.20